Terminal Aerodrome Forecast
Issued by NWS Wilmington, OH

Current Version | Previous Version | Graphics & Text | Print | Product List | Glossary On
Versions: 1 2 3 4 5 6 7 8 9 10 11 12 13 14 15 16 17 18 19 20 21 22 23 24 25 26 27 28 29 30 31 32 33 34 35
431
FTUS41 KILN 150538
TAFCVG
TAF
KCVG 150538Z 1506/1612 23012G19KT P6SM OVC009
     FM151400 23012G20KT P6SM VCSH OVC015
     FM151900 22012G20KT 5SM -SHRA OVC012
     FM152300 23014KT 3SM -SHRA OVC006
     FM161000 29015KT 3SM -SHRA OVC025=

USA.gov is the U.S. government's official web portal to all federal, state and local government web resources and services.